Accueil
METAR-TAF:

METAR-TAF

Aéroports :

Le Luc, France

latitude: 43-23N, longitude: 006-23E, altitude: 80 m

Observation

Le bulletin a été fait il y a 27 minutes, à 10:30 UTC
Vent 1 kt de direction variable
Température 8°C
Humidité 93%
Pression 1020 hPa
Visibilité: 4000 m
Nuages épars à une hauteur de 300 ft
Nuages fragmentés à une hauteur de 2800 ft
Nuages fragmentés à une hauteur de 23000 ft
brume

METAR: LFMC 221030Z VRB01KT 4000 BR SCT003 BKN028 BKN230 08/07 Q1020 RMK B3

Heure: 11:57 (10:57 UTC)


TAF: absent

Observations et prévisions météorologiques de plus de 4000 aéroports (messages METAR et TAF).

Les stations disponibles sont représentées par des disques jaunes et rouges sur la carte.

Passer la souris dessus pour voir le nom de la station.

Cliquer dessus pour voir les observations et prévisions météorologiques.

Pour changer de carte: cliquez sur les boutons verts avec une croix noire pour zoomer, sur le bouton vert avec un tiret pour effectuer un zoom arrière, ou sur les flèches vertes pour les cartes adjacentes.


METAR-TAF: